메인 페이지
METAR-TAF:

METAR-TAF

공항 :

콜럼버스, 미시시피, 미국

위도: 33-39N, 경도: 088-27W, 고도: 67m

현재 날씨관측

예보는 56분 전, 05:56시(UTC)에 발표되었습니다.
5kt
온도 25°C
습도 89%
기압 1017 hPa
시정: 16.1km
고도 12000ft 상공 구름 보통

METAR: KCBM 210556Z AUTO 17005KT 10SM SCT120 25/23 A3004 RMK AO2 RAB08E17 SLP173 P0000 60000 T02510231 10291 20236 403510207 52010 $

시각: 01:52 (06:52 UTC)

예보

예보는 3 시간 29분 전, 03:23시(UTC)에 발표되었습니다.
예보 대상 시간: 21일 03시부터 22일 07시까지 (UTC)
남남동3kt
시정 10km 이상
고도 4000ft 상공 구름 조금
고도 5000ft 상공 구름 보통
전환 중
21일 08시부터 21일 09시까지 (UTC)
남남동3kt
시정 10km 이상
고도 1500ft 상공 구름 조금
고도 7000ft 상공 구름 보통
전환 중
21일 16시부터 21일 17시까지 (UTC)
남남서6kt
시정: 8000m
고도 3000ft 상공 구름 조금
고도 5000ft 상공 구름 보통
약한소나기
전환 중
21일 23시부터 21일 24시까지 (UTC)
남동3kt
시정: 2109m
고도 3000ft 상공 구름 조금
고도 6000ft 상공 구름 보통

TAF: KCBM 210323Z 2103/2207 15003KT 9999 FEW040 SCT050 QNH2994INS BECMG 2108/2109 16003KT 9999 FEW015 SCT070 QNH3001INS BECMG 2116/2117 21006KT 8000 -SHRA FEW030 SCT050 QNH2996INS BECMG 2123/2124 14003KT 9999 NSW FEW030 SCT060 QNH3001INS TX33/2121Z TN20/2112Z LAST NO AMDS AFT 2103 NEXT 2109

4,000개 이상의 공항 관측 자료 및 예보 (METAR 및 TAF 보고).

지도상에서 검색 가능한 기상관측소가 노란 점과 빨간 점으로 표시되어 있습니다.

기상관측소 명을 보려면 표시 위로 마우스를 이동하세요.

날씨 관측과 예보를 보려면 클릭하세요.

지도 변경 : 확대하려면 엑스 표시가 있는 녹색 버튼, 축소하려면 빼기 표시가 있는 녹색 버튼, 다음 페이지의 지도를 보려면 녹색 화살표를 클릭하세요.


METAR-TAF: